Time;durP1;ratioP1;P1;durP2;ratioP2;P2;SDS_P1;SDS_P2;PMS_P1;PMS_P2;Temp;Humidity;BMP_temperature;BMP_pressure;BME280_temperature;BME280_humidity;BME280_pressure;Samples;Min_cycle;Max_cycle;Signal;HPM_P1;HPM_P2
2022/04/14 00:01:52;;;;;;;13.02;9.05;;;12.20;99.90;;;;;;5017227;28;20389;-69
2022/04/14 00:04:17;;;;;;;13.43;9.43;;;12.20;99.90;;;;;;4987013;28;20080;-68
2022/04/14 00:06:43;;;;;;;12.30;9.30;;;12.20;99.90;;;;;;4997464;28;20088;-68
2022/04/14 00:09:09;;;;;;;13.52;9.45;;;12.20;99.90;;;;;;4997760;28;20052;-68
2022/04/14 00:11:34;;;;;;;13.20;9.88;;;12.20;99.90;;;;;;4997557;28;20487;-68
2022/04/14 00:14:01;;;;;;;14.85;10.52;;;12.20;99.90;;;;;;4992390;28;20033;-68
2022/04/14 00:16:26;;;;;;;16.55;11.10;;;12.20;99.90;;;;;;5000377;28;20095;-68
2022/04/14 00:18:53;;;;;;;16.15;10.70;;;12.20;99.90;;;;;;5000997;28;20354;-69
2022/04/14 00:21:19;;;;;;;17.08;11.35;;;12.20;99.90;;;;;;5000772;28;20066;-68
2022/04/14 00:23:45;;;;;;;16.92;11.85;;;12.30;99.90;;;;;;5016693;28;20471;-68
2022/04/14 00:26:11;;;;;;;16.80;11.55;;;12.20;99.90;;;;;;5016921;28;20041;-68
2022/04/14 00:28:36;;;;;;;17.45;12.60;;;12.20;99.90;;;;;;5016601;28;20041;-68
2022/04/14 00:31:04;;;;;;;14.45;11.88;;;12.20;99.90;;;;;;5017141;28;20033;-68
2022/04/14 00:33:30;;;;;;;18.83;12.95;;;12.20;99.90;;;;;;5016506;28;20458;-69
2022/04/14 00:35:55;;;;;;;16.85;12.80;;;12.20;99.90;;;;;;5000514;28;20037;-69
2022/04/14 00:38:21;;;;;;;17.95;13.23;;;12.20;99.90;;;;;;5000192;28;20037;-68
2022/04/14 00:40:52;;;;;;;17.15;12.93;;;12.20;99.90;;;;;;5000687;28;20052;-68
2022/04/14 00:43:27;;;;;;;17.50;13.35;;;12.20;99.90;;;;;;5016203;28;20496;-69
2022/04/14 00:45:53;;;;;;;20.20;14.75;;;12.20;99.90;;;;;;5016546;28;20176;-69
2022/04/14 00:48:19;;;;;;;19.67;14.95;;;12.10;99.90;;;;;;4999633;28;20041;-68
2022/04/14 00:50:44;;;;;;;18.98;15.10;;;12.10;99.90;;;;;;5000481;28;20045;-68
2022/04/14 00:53:11;;;;;;;20.38;14.90;;;12.00;99.90;;;;;;5016257;28;20124;-68
2022/04/14 00:55:36;;;;;;;20.10;15.45;;;12.00;99.90;;;;;;5000293;28;20112;-68
2022/04/14 00:58:02;;;;;;;22.02;15.45;;;11.90;99.90;;;;;;5033696;28;20358;-68
2022/04/14 01:00:28;;;;;;;18.10;13.90;;;11.90;99.90;;;;;;5016651;28;20069;-68
2022/04/14 01:02:55;;;;;;;19.55;13.68;;;11.90;99.90;;;;;;5016169;28;20514;-69
2022/04/14 01:05:21;;;;;;;20.67;14.30;;;11.90;99.90;;;;;;5016400;28;20045;-68
2022/04/14 01:07:48;;;;;;;20.77;14.25;;;11.90;99.90;;;;;;5016228;28;20048;-68
2022/04/14 01:10:14;;;;;;;23.73;14.15;;;11.90;99.90;;;;;;5016523;28;20045;-68
2022/04/14 01:12:40;;;;;;;20.60;13.95;;;11.90;99.90;;;;;;5016197;28;20052;-68
2022/04/14 01:15:14;;;;;;;18.02;12.82;;;11.90;99.90;;;;;;5015890;28;20124;-68
2022/04/14 01:17:41;;;;;;;19.63;13.65;;;11.90;99.90;;;;;;5016297;28;20073;-68
2022/04/14 01:20:09;;;;;;;18.10;13.18;;;11.80;99.90;;;;;;5016202;28;20103;-68
2022/04/14 01:22:43;;;;;;;15.48;12.63;;;11.90;99.90;;;;;;5016092;28;20425;-68
2022/04/14 01:25:09;;;;;;;16.93;12.20;;;11.80;99.90;;;;;;4999885;28;20041;-68
2022/04/14 01:27:34;;;;;;;16.98;12.48;;;11.80;99.90;;;;;;5015850;28;20276;-68
2022/04/14 01:30:01;;;;;;;17.63;12.38;;;11.80;99.90;;;;;;5015793;28;20033;-69
2022/04/14 01:32:27;;;;;;;16.95;12.63;;;11.80;99.90;;;;;;5015899;28;20497;-68
2022/04/14 01:34:52;;;;;;;16.20;12.38;;;11.80;99.90;;;;;;5015989;28;20120;-69
2022/04/14 01:37:18;;;;;;;18.08;12.38;;;11.70;99.90;;;;;;5016077;28;20139;-68
2022/04/14 01:39:45;;;;;;;16.92;12.82;;;11.70;99.90;;;;;;5016401;28;20470;-68
2022/04/14 01:42:10;;;;;;;18.02;12.75;;;11.70;99.90;;;;;;5016401;28;20470;-68
2022/04/14 01:44:36;;;;;;;17.17;12.95;;;11.60;99.90;;;;;;5015390;28;20049;-67
2022/04/14 01:47:03;;;;;;;17.73;12.80;;;11.60;99.90;;;;;;5015491;28;20056;-68
2022/04/14 01:49:28;;;;;;;17.35;12.73;;;11.60;99.90;;;;;;5015923;28;20390;-69
2022/04/14 01:51:54;;;;;;;20.52;13.63;;;11.60;99.90;;;;;;5016097;28;20442;-68
2022/04/14 01:54:20;;;;;;;19.45;13.30;;;11.60;99.90;;;;;;5002718;28;20077;-67
2022/04/14 01:56:46;;;;;;;17.63;13.23;;;11.60;99.90;;;;;;5013128;28;20132;-67
2022/04/14 01:59:12;;;;;;;20.13;13.40;;;11.50;99.90;;;;;;4997606;28;20034;-68
2022/04/14 02:01:37;;;;;;;18.13;13.38;;;11.40;99.90;;;;;;5000430;28;20053;-68
2022/04/14 02:04:05;;;;;;;18.25;12.75;;;11.50;99.90;;;;;;5010495;28;20557;-68
2022/04/14 02:06:31;;;;;;;18.58;12.77;;;11.40;99.90;;;;;;5019019;28;20099;-69
2022/04/14 02:08:56;;;;;;;18.45;14.10;;;11.40;99.90;;;;;;5003262;28;20124;-68
2022/04/14 02:11:22;;;;;;;20.77;13.63;;;11.30;99.90;;;;;;5003064;28;20132;-68
2022/04/14 02:13:48;;;;;;;19.05;13.98;;;11.30;99.90;;;;;;5010802;28;20076;-68
2022/04/14 02:16:14;;;;;;;19.17;13.68;;;11.30;99.90;;;;;;4999447;28;20455;-69
2022/04/14 02:18:40;;;;;;;20.85;13.32;;;11.30;99.90;;;;;;4999864;28;20373;-69
2022/04/14 02:21:05;;;;;;;20.48;13.48;;;11.30;99.90;;;;;;4999716;28;20041;-68
2022/04/14 02:23:31;;;;;;;19.45;13.20;;;11.30;99.90;;;;;;5005798;28;20098;-68
2022/04/14 02:25:57;;;;;;;18.83;13.07;;;11.30;99.90;;;;;;5019295;28;20033;-68
2022/04/14 02:28:22;;;;;;;20.80;13.68;;;11.30;99.90;;;;;;5018713;28;20120;-68
2022/04/14 02:30:48;;;;;;;17.50;12.73;;;11.20;99.90;;;;;;5019029;28;20091;-68
2022/04/14 02:33:14;;;;;;;18.40;13.25;;;11.20;99.90;;;;;;5018643;28;20038;-68
2022/04/14 02:35:40;;;;;;;23.38;14.95;;;11.10;99.90;;;;;;5018976;28;20370;-68
2022/04/14 02:38:06;;;;;;;16.17;12.85;;;11.10;99.90;;;;;;5018616;28;20033;-68
2022/04/14 02:40:32;;;;;;;19.20;12.82;;;11.00;99.90;;;;;;5018818;28;20048;-68
2022/04/14 02:42:57;;;;;;;20.27;14.10;;;11.00;99.90;;;;;;5018864;28;20080;-68
2022/04/14 02:45:24;;;;;;;18.13;13.20;;;11.00;99.90;;;;;;5035912;28;20394;-68
2022/04/14 02:47:51;;;;;;;18.80;13.38;;;11.00;99.90;;;;;;5018285;28;20465;-68
2022/04/14 02:50:17;;;;;;;16.70;12.50;;;11.00;99.90;;;;;;5036113;28;20045;-69
2022/04/14 02:52:43;;;;;;;18.67;12.45;;;10.90;99.90;;;;;;5036545;28;20052;-68
2022/04/14 02:55:09;;;;;;;20.80;13.60;;;10.90;99.90;;;;;;5018804;28;20121;-69
2022/04/14 02:57:34;;;;;;;18.67;14.15;;;10.90;99.90;;;;;;5018338;28;20076;-67
2022/04/14 03:00:01;;;;;;;22.05;13.43;;;10.90;99.90;;;;;;5036077;28;20050;-68
2022/04/14 03:02:27;;;;;;;19.50;14.48;;;10.90;99.90;;;;;;5018335;28;20454;-68
2022/04/14 03:04:53;;;;;;;18.35;14.23;;;10.90;99.90;;;;;;5001432;28;20037;-68
2022/04/14 03:07:19;;;;;;;23.83;15.40;;;10.90;99.90;;;;;;4998424;28;20084;-69
2022/04/14 03:09:45;;;;;;;18.30;13.20;;;10.90;99.90;;;;;;4998317;28;20038;-68
2022/04/14 03:12:12;;;;;;;17.98;13.95;;;10.90;99.90;;;;;;4998085;28;20038;-68
2022/04/14 03:14:37;;;;;;;22.05;14.73;;;10.90;99.90;;;;;;5013153;28;20049;-68
2022/04/14 03:17:04;;;;;;;23.35;16.13;;;11.00;99.90;;;;;;5017673;28;20034;-68
2022/04/14 03:19:29;;;;;;;18.80;14.30;;;10.90;99.90;;;;;;5018189;28;20048;-70
2022/04/14 03:21:55;;;;;;;19.73;14.27;;;10.90;99.90;;;;;;5018149;28;20045;-68
2022/04/14 03:24:20;;;;;;;20.08;15.32;;;10.90;99.90;;;;;;5017822;28;20056;-68
2022/04/14 03:26:46;;;;;;;19.92;15.20;;;10.80;99.90;;;;;;5017881;28;20139;-68
2022/04/14 03:29:11;;;;;;;23.38;15.85;;;10.80;99.90;;;;;;5018054;28;20052;-68
2022/04/14 03:31:37;;;;;;;22.30;15.70;;;10.80;99.90;;;;;;5001604;28;20074;-67
2022/04/14 03:34:03;;;;;;;23.45;15.85;;;10.70;99.90;;;;;;5017549;28;20421;-68
2022/04/14 03:36:30;;;;;;;24.73;16.17;;;10.60;99.90;;;;;;5017686;28;20048;-69
2022/04/14 03:38:57;;;;;;;25.42;16.70;;;10.60;99.90;;;;;;5018318;28;20132;-69
2022/04/14 03:41:22;;;;;;;21.38;15.40;;;10.60;99.90;;;;;;5017709;28;20132;-68
2022/04/14 03:43:48;;;;;;;24.48;16.55;;;10.60;99.90;;;;;;5017262;28;20061;-68
2022/04/14 03:46:19;;;;;;;20.35;16.05;;;10.50;99.90;;;;;;5017339;28;20046;-69
2022/04/14 03:48:45;;;;;;;21.67;16.45;;;10.50;99.90;;;;;;5018045;28;20103;-68
2022/04/14 03:51:14;;;;;;;24.25;16.83;;;10.50;99.90;;;;;;5017772;28;20075;-68
2022/04/14 03:53:43;;;;;;;20.42;17.17;;;10.50;99.90;;;;;;5017540;28;20091;-68
2022/04/14 03:56:10;;;;;;;26.85;18.05;;;10.50;99.90;;;;;;5017291;28;20045;-68
2022/04/14 03:58:36;;;;;;;23.48;17.88;;;10.50;99.90;;;;;;5017717;28;20354;-68
2022/04/14 04:01:02;;;;;;;24.40;18.40;;;10.50;99.90;;;;;;5017368;28;20039;-69
2022/04/14 04:03:27;;;;;;;29.13;18.75;;;10.50;99.90;;;;;;5012514;28;20029;-68
2022/04/14 04:05:53;;;;;;;27.70;20.08;;;10.50;99.90;;;;;;4997574;28;20366;-68
2022/04/14 04:08:19;;;;;;;30.95;21.35;;;10.50;99.90;;;;;;4997302;28;20042;-68
2022/04/14 04:10:45;;;;;;;33.17;21.48;;;10.50;99.90;;;;;;5014846;28;20036;-68
2022/04/14 04:13:11;;;;;;;29.95;20.80;;;10.40;99.90;;;;;;4999762;28;20045;-69
2022/04/14 04:15:36;;;;;;;30.13;20.75;;;10.50;99.90;;;;;;5017317;28;20041;-68
2022/04/14 04:18:05;;;;;;;29.27;21.13;;;10.40;99.90;;;;;;5000885;28;20465;-69
2022/04/14 04:20:34;;;;;;;29.08;20.00;;;10.40;99.90;;;;;;5017154;28;20041;-70
2022/04/14 04:23:03;;;;;;;29.85;21.70;;;10.40;99.90;;;;;;5016906;28;20176;-69
2022/04/14 04:25:29;;;;;;;28.33;21.42;;;10.40;99.90;;;;;;5017040;28;20060;-71
2022/04/14 04:27:54;;;;;;;28.90;20.10;;;10.40;99.90;;;;;;5000551;28;20371;-69
2022/04/14 04:30:20;;;;;;;29.15;20.58;;;10.30;99.90;;;;;;5000756;28;20037;-68
2022/04/14 04:32:45;;;;;;;28.00;20.85;;;10.30;99.90;;;;;;5000355;28;20124;-68
2022/04/14 04:35:12;;;;;;;29.08;21.80;;;10.30;99.90;;;;;;5016588;28;20042;-68
2022/04/14 04:37:38;;;;;;;27.90;21.33;;;10.30;99.90;;;;;;5016377;28;20037;-68
2022/04/14 04:40:04;;;;;;;25.60;19.92;;;10.20;99.90;;;;;;5016889;28;20041;-69
2022/04/14 04:42:31;;;;;;;26.33;20.88;;;10.30;99.90;;;;;;5016669;28;20052;-69
2022/04/14 04:44:56;;;;;;;26.20;20.25;;;10.20;99.90;;;;;;5016256;28;20088;-69
2022/04/14 04:47:22;;;;;;;29.83;20.83;;;10.20;99.90;;;;;;5016070;28;20049;-69
2022/04/14 04:49:48;;;;;;;28.58;20.38;;;10.20;99.90;;;;;;5016739;28;20057;-69
2022/04/14 04:52:15;;;;;;;27.13;20.23;;;10.20;99.90;;;;;;5016514;28;20048;-69
2022/04/14 04:54:40;;;;;;;28.25;19.42;;;10.10;99.90;;;;;;5016568;28;20036;-69
2022/04/14 04:57:06;;;;;;;28.67;19.60;;;10.10;99.90;;;;;;5028416;28;20041;-68
2022/04/14 04:59:32;;;;;;;24.10;20.10;;;10.10;99.90;;;;;;5026707;28;20064;-68
2022/04/14 05:01:57;;;;;;;28.98;19.35;;;10.10;99.90;;;;;;5028786;28;20034;-69
2022/04/14 05:04:23;;;;;;;27.92;20.17;;;10.10;99.90;;;;;;5021545;28;20107;-68
2022/04/14 05:06:48;;;;;;;25.73;20.08;;;10.00;99.90;;;;;;5025446;28;20671;-69
2022/04/14 05:09:20;;;;;;;25.83;19.05;;;10.00;99.90;;;;;;5023586;28;20038;-70
2022/04/14 05:11:46;;;;;;;25.63;19.85;;;10.00;99.90;;;;;;5033415;28;20044;-68
2022/04/14 05:14:11;;;;;;;26.65;19.67;;;10.00;99.90;;;;;;5033339;28;20042;-68
2022/04/14 05:16:37;;;;;;;28.85;21.00;;;10.00;99.90;;;;;;5031307;28;20038;-68
2022/04/14 05:19:03;;;;;;;30.35;21.15;;;9.90;99.90;;;;;;5015807;28;20111;-69
2022/04/14 05:21:31;;;;;;;32.10;22.17;;;9.90;99.90;;;;;;5030324;28;20049;-69
2022/04/14 05:23:57;;;;;;;29.77;22.48;;;10.00;99.90;;;;;;5030043;28;20429;-69
2022/04/14 05:26:22;;;;;;;28.55;21.13;;;10.00;99.90;;;;;;5031222;28;20045;-67
2022/04/14 05:28:49;;;;;;;28.05;21.27;;;10.00;99.90;;;;;;5031701;28;20250;-68
2022/04/14 05:31:15;;;;;;;32.70;22.70;;;10.00;99.90;;;;;;5032305;28;20037;-68
2022/04/14 05:33:40;;;;;;;29.50;21.05;;;10.10;99.90;;;;;;5033473;28;20034;-69
2022/04/14 05:36:06;;;;;;;30.73;22.42;;;10.20;99.90;;;;;;5033139;28;20037;-69
2022/04/14 05:38:32;;;;;;;28.70;22.40;;;10.30;99.90;;;;;;5036550;28;20043;-68
2022/04/14 05:40:58;;;;;;;36.67;24.10;;;10.40;99.90;;;;;;5035406;28;20037;-69
2022/04/14 05:43:26;;;;;;;41.05;26.17;;;10.80;99.90;;;;;;5034610;28;20061;-69
2022/04/14 05:45:52;;;;;;;43.38;29.33;;;11.10;99.90;;;;;;5035891;28;20128;-69
2022/04/14 05:48:19;;;;;;;39.03;29.02;;;11.10;99.90;;;;;;5035956;28;20128;-69
2022/04/14 05:50:49;;;;;;;37.40;27.65;;;11.20;99.90;;;;;;5034841;28;20045;-73
2022/04/14 05:53:16;;;;;;;39.22;27.75;;;11.50;99.90;;;;;;5019525;28;20068;-73
2022/04/14 05:55:47;;;;;;;36.28;27.55;;;12.00;99.90;;;;;;5018547;28;20346;-73
2022/04/14 05:58:13;;;;;;;36.20;26.88;;;12.30;99.90;;;;;;5037120;28;20458;-71
2022/04/14 06:00:40;;;;;;;39.50;28.70;;;12.80;99.90;;;;;;5036807;28;20040;-69
2022/04/14 06:03:05;;;;;;;39.58;27.23;;;13.30;99.90;;;;;;5034321;28;20057;-69
2022/04/14 06:05:32;;;;;;;37.92;28.05;;;13.70;99.90;;;;;;5020150;28;20512;-68
2022/04/14 06:07:58;;;;;;;38.28;26.88;;;13.90;99.90;;;;;;5036347;28;20042;-68
2022/04/14 06:10:25;;;;;;;38.80;27.90;;;14.30;99.90;;;;;;5035532;28;20047;-69
2022/04/14 06:12:51;;;;;;;40.40;27.60;;;14.50;99.90;;;;;;5019081;28;20080;-67
2022/04/14 06:15:17;;;;;;;39.45;27.60;;;14.70;99.90;;;;;;5018846;28;20047;-67
2022/04/14 06:17:44;;;;;;;42.90;27.75;;;14.80;99.90;;;;;;5019253;28;20029;-67
2022/04/14 06:20:11;;;;;;;42.38;27.95;;;15.10;99.90;;;;;;5018854;28;20045;-67
2022/04/14 06:22:40;;;;;;;42.58;28.05;;;15.20;99.90;;;;;;5036850;28;20045;-67
2022/04/14 06:25:12;;;;;;;41.53;27.27;;;15.20;99.90;;;;;;5019003;28;20052;-63
2022/04/14 06:27:42;;;;;;;41.03;27.33;;;15.40;99.90;;;;;;5019479;28;20114;-67
2022/04/14 06:30:09;;;;;;;42.70;26.90;;;15.50;99.90;;;;;;5017160;28;20475;-67
2022/04/14 06:32:36;;;;;;;39.67;30.23;;;15.80;99.90;;;;;;5010203;28;20068;-67
2022/04/14 06:35:06;;;;;;;42.05;31.52;;;16.20;99.90;;;;;;5018551;28;20037;-67
2022/04/14 06:37:33;;;;;;;40.00;29.13;;;16.20;99.90;;;;;;5019141;28;20493;-67
2022/04/14 06:39:59;;;;;;;41.15;29.75;;;16.40;99.90;;;;;;5018582;28;20037;-69
2022/04/14 06:42:24;;;;;;;39.38;29.13;;;16.30;99.90;;;;;;5018772;28;20351;-67
2022/04/14 06:44:50;;;;;;;43.47;30.55;;;16.50;99.90;;;;;;5003714;28;20132;-67
2022/04/14 06:47:15;;;;;;;49.42;30.80;;;16.10;99.90;;;;;;5027291;28;20050;-67
2022/04/14 06:49:41;;;;;;;44.00;29.50;;;16.20;99.90;;;;;;5002290;28;20053;-67
2022/04/14 06:52:07;;;;;;;47.55;30.10;;;16.10;99.90;;;;;;5002208;28;20470;-67
2022/04/14 06:54:34;;;;;;;41.35;28.58;;;16.00;99.90;;;;;;5018064;28;20077;-68
2022/04/14 06:57:00;;;;;;;42.33;28.27;;;16.10;99.90;;;;;;5035997;28;20049;-67
2022/04/14 06:59:27;;;;;;;35.13;25.20;;;16.30;99.90;;;;;;5034662;28;20053;-68
2022/04/14 07:01:53;;;;;;;35.88;26.08;;;16.30;99.90;;;;;;5034647;28;20453;-68
2022/04/14 07:04:19;;;;;;;35.25;25.83;;;16.10;99.90;;;;;;5035480;28;20501;-67
2022/04/14 07:06:46;;;;;;;35.00;27.25;;;16.00;99.90;;;;;;5018423;28;20078;-68
2022/04/14 07:09:11;;;;;;;34.50;27.02;;;15.90;99.90;;;;;;5035560;28;20429;-67
2022/04/14 07:11:37;;;;;;;33.72;25.50;;;15.90;99.90;;;;;;5001809;28;20467;-67
2022/04/14 07:14:03;;;;;;;34.22;25.10;;;15.70;99.90;;;;;;5035676;28;20046;-67
2022/04/14 07:16:28;;;;;;;34.33;25.00;;;15.70;99.90;;;;;;5035715;28;20075;-69
2022/04/14 07:18:54;;;;;;;32.63;25.67;;;15.60;99.90;;;;;;5017688;28;20048;-67
2022/04/14 07:21:19;;;;;;;39.10;25.65;;;15.50;99.90;;;;;;5018176;28;20041;-67
2022/04/14 07:23:45;;;;;;;30.08;24.48;;;15.40;99.90;;;;;;5017849;28;20045;-66
2022/04/14 07:26:11;;;;;;;34.33;25.75;;;15.40;99.90;;;;;;5035777;28;20354;-67
2022/04/14 07:28:37;;;;;;;34.97;25.58;;;15.40;99.90;;;;;;5035030;28;20074;-67
2022/04/14 07:31:03;;;;;;;34.03;25.48;;;15.40;99.90;;;;;;5024655;28;20082;-70
2022/04/14 07:33:29;;;;;;;41.80;24.67;;;15.40;99.90;;;;;;5033377;28;20465;-67
2022/04/14 07:35:55;;;;;;;35.58;25.40;;;15.30;99.90;;;;;;5034225;28;20037;-68
2022/04/14 07:38:21;;;;;;;37.83;26.52;;;15.20;99.90;;;;;;5031401;28;20029;-67
2022/04/14 07:40:47;;;;;;;39.15;24.55;;;15.30;99.90;;;;;;5004190;28;20390;-66
2022/04/14 07:43:12;;;;;;;32.97;23.80;;;15.20;99.90;;;;;;5034699;28;20056;-66
2022/04/14 07:45:39;;;;;;;39.30;24.92;;;15.20;99.90;;;;;;5035386;28;20052;-62
2022/04/14 07:48:05;;;;;;;34.88;22.85;;;15.10;99.90;;;;;;5017382;28;20041;-66
2022/04/14 07:50:32;;;;;;;29.23;21.25;;;15.10;99.90;;;;;;5017040;28;20041;-65
2022/04/14 07:52:59;;;;;;;29.98;22.13;;;15.10;99.90;;;;;;5027390;28;20045;-68
2022/04/14 07:55:33;;;;;;;31.27;21.38;;;15.20;99.90;;;;;;5017729;28;20378;-68
2022/04/14 07:58:07;;;;;;;32.70;20.77;;;15.10;99.90;;;;;;5017000;28;20033;-70
2022/04/14 08:00:34;;;;;;;28.13;20.63;;;15.10;99.90;;;;;;5034513;28;20565;-68
2022/04/14 08:03:01;;;;;;;26.73;19.90;;;15.10;99.90;;;;;;5017047;28;20045;-68
2022/04/14 08:05:36;;;;;;;19.15;14.50;;;15.20;99.90;;;;;;5033963;28;20378;-69
2022/04/14 08:08:03;;;;;;;25.63;18.80;;;15.20;99.90;;;;;;5033682;28;20045;-68
2022/04/14 08:10:29;;;;;;;24.27;15.35;;;15.20;99.90;;;;;;5033028;28;20050;-70
2022/04/14 08:12:55;;;;;;;20.45;12.73;;;15.20;99.90;;;;;;5033539;28;20128;-68
2022/04/14 08:15:21;;;;;;;17.52;11.25;;;15.30;99.90;;;;;;5017547;28;20034;-68
2022/04/14 08:17:46;;;;;;;17.40;8.88;;;15.40;99.90;;;;;;5016822;28;20112;-68
2022/04/14 08:20:13;;;;;;;17.98;11.30;;;15.40;99.90;;;;;;5021956;28;20339;-68
2022/04/14 08:22:50;;;;;;;14.57;9.77;;;15.40;99.90;;;;;;5033322;28;20060;-68
2022/04/14 08:25:24;;;;;;;11.73;7.63;;;15.40;99.90;;;;;;5018134;28;20417;-70
2022/04/14 08:27:51;;;;;;;15.45;8.35;;;15.40;99.90;;;;;;5034273;28;20045;-68
2022/04/14 08:30:18;;;;;;;17.55;10.85;;;15.50;99.90;;;;;;5016558;28;20041;-70
2022/04/14 08:32:46;;;;;;;33.40;20.27;;;15.60;99.90;;;;;;5016801;28;20100;-67
2022/04/14 08:35:13;;;;;;;49.28;26.77;;;15.70;99.90;;;;;;5016707;28;20476;-68
2022/04/14 08:37:40;;;;;;;39.03;21.98;;;15.80;99.90;;;;;;5016848;28;20331;-68
2022/04/14 08:40:09;;;;;;;44.00;23.85;;;15.90;99.90;;;;;;4996940;28;20041;-68
2022/04/14 08:42:39;;;;;;;18.55;10.38;;;15.80;99.90;;;;;;4996889;28;20058;-68
2022/04/14 08:45:11;;;;;;;26.52;15.55;;;15.80;99.90;;;;;;5012843;28;20144;-68
2022/04/14 08:47:39;;;;;;;29.95;20.48;;;15.70;99.90;;;;;;5033778;28;20128;-68
2022/04/14 08:50:06;;;;;;;18.85;13.13;;;15.70;99.90;;;;;;5016218;28;20356;-68
2022/04/14 08:52:36;;;;;;;13.07;8.30;;;15.70;99.90;;;;;;5016460;28;20045;-68
2022/04/14 08:55:04;;;;;;;10.65;5.35;;;15.90;99.90;;;;;;5016214;28;20045;-70
2022/04/14 08:57:31;;;;;;;7.82;5.22;;;15.90;99.90;;;;;;5020483;28;20033;-69
2022/04/14 08:59:59;;;;;;;8.55;5.20;;;16.00;99.90;;;;;;5033385;28;20102;-68
2022/04/14 09:02:26;;;;;;;9.27;5.55;;;16.10;99.90;;;;;;5032641;28;20402;-68
2022/04/14 09:04:53;;;;;;;8.50;6.40;;;16.10;99.90;;;;;;5021236;28;20037;-68
2022/04/14 09:07:18;;;;;;;11.10;6.45;;;16.20;99.90;;;;;;4996568;28;20712;-68
2022/04/14 09:09:44;;;;;;;11.82;7.43;;;16.30;99.90;;;;;;4995333;28;20069;-68
2022/04/14 09:12:11;;;;;;;11.80;8.98;;;16.30;99.90;;;;;;4996632;28;20053;-68
2022/04/14 09:14:37;;;;;;;11.18;8.57;;;16.20;99.90;;;;;;5022691;28;20060;-69
2022/04/14 09:17:07;;;;;;;12.48;9.50;;;16.20;99.90;;;;;;5015960;28;20450;-69
2022/04/14 09:19:34;;;;;;;13.50;10.70;;;16.30;99.90;;;;;;5015812;28;20045;-68
2022/04/14 09:22:08;;;;;;;12.50;9.82;;;16.30;99.90;;;;;;5016159;28;20461;-68
2022/04/14 09:24:52;;;;;;;12.77;8.75;;;16.30;99.90;;;;;;5016853;28;20124;-68
2022/04/14 09:27:37;;;;;;;14.50;8.63;;;16.50;99.90;;;;;;5033695;28;20362;-70
2022/04/14 09:30:08;;;;;;;12.52;9.10;;;16.60;99.90;;;;;;5033432;28;20038;-68
2022/04/14 09:32:42;;;;;;;12.85;9.60;;;16.60;99.90;;;;;;5015785;28;20508;-68
2022/04/14 09:35:17;;;;;;;13.40;9.95;;;16.60;99.90;;;;;;5015884;28;20139;-68
2022/04/14 09:37:43;;;;;;;12.55;10.48;;;16.70;99.90;;;;;;5016046;28;20057;-68
2022/04/14 09:40:10;;;;;;;16.17;11.35;;;16.70;99.90;;;;;;5015733;28;20041;-68
2022/04/14 09:42:40;;;;;;;13.70;11.88;;;16.70;99.90;;;;;;5016176;28;20049;-69
2022/04/14 09:45:25;;;;;;;15.55;12.50;;;16.70;99.90;;;;;;5013179;28;20057;-68
2022/04/14 09:48:00;;;;;;;14.75;12.50;;;16.70;99.90;;;;;;5012539;28;20046;-68
2022/04/14 09:50:35;;;;;;;19.30;13.90;;;16.80;99.90;;;;;;5013769;28;20038;-68
2022/04/14 09:53:08;;;;;;;17.58;13.68;;;16.70;99.90;;;;;;5012766;28;20041;-68
2022/04/14 09:55:36;;;;;;;18.17;12.30;;;16.70;99.90;;;;;;5012402;28;20605;-69
2022/04/14 09:58:17;;;;;;;14.60;12.50;;;16.80;99.90;;;;;;5011919;28;20530;-69
2022/04/14 10:00:53;;;;;;;16.63;13.68;;;17.00;99.90;;;;;;5012780;28;20142;-68
2022/04/14 10:03:21;;;;;;;18.08;13.32;;;16.90;99.90;;;;;;5012104;28;20065;-68
2022/04/14 10:05:51;;;;;;;16.65;12.20;;;16.90;99.90;;;;;;5013443;28;20069;-68
2022/04/14 10:08:17;;;;;;;15.85;12.73;;;17.00;99.90;;;;;;5012177;28;20042;-70
2022/04/14 10:10:47;;;;;;;16.65;13.15;;;16.90;99.90;;;;;;5013705;28;20109;-68
2022/04/14 10:13:17;;;;;;;17.55;12.68;;;17.00;99.90;;;;;;5013513;28;20042;-68
2022/04/14 10:15:45;;;;;;;19.50;12.98;;;17.00;99.90;;;;;;4993086;28;20368;-67
2022/04/14 10:18:15;;;;;;;19.58;12.95;;;17.20;99.90;;;;;;4992366;28;20042;-68
2022/04/14 10:20:43;;;;;;;14.50;10.77;;;17.20;99.90;;;;;;5011521;28;20415;-68
2022/04/14 10:23:11;;;;;;;13.77;10.88;;;17.10;99.90;;;;;;4996739;28;20054;-68
2022/04/14 10:25:38;;;;;;;13.40;10.60;;;17.10;99.90;;;;;;5016719;28;20344;-68
2022/04/14 10:28:15;;;;;;;15.25;10.18;;;17.20;99.90;;;;;;5015196;28;20049;-69
2022/04/14 10:30:45;;;;;;;12.70;10.25;;;17.20;99.90;;;;;;5014656;28;20041;-68
2022/04/14 10:33:12;;;;;;;13.98;9.35;;;17.20;99.90;;;;;;5014549;28;20030;-69
2022/04/14 10:35:37;;;;;;;11.80;8.75;;;17.30;99.90;;;;;;5015094;28;20042;-69
2022/04/14 10:38:19;;;;;;;11.10;6.70;;;17.50;99.90;;;;;;5014307;28;20506;-68
2022/04/14 10:41:23;;;;;;;12.07;8.10;;;17.40;99.90;;;;;;5030502;28;20447;-68
2022/04/14 10:43:49;;;;;;;14.43;8.57;;;17.50;99.90;;;;;;5016430;28;20141;-69
2022/04/14 10:46:17;;;;;;;12.65;9.18;;;17.50;99.90;;;;;;5035610;28;20124;-68
2022/04/14 10:48:46;;;;;;;13.50;8.43;;;17.50;99.90;;;;;;5018084;28;20038;-68
2022/04/14 10:51:25;;;;;;;12.10;7.03;;;17.50;99.90;;;;;;5018834;28;20033;-69
2022/04/14 10:53:56;;;;;;;15.60;6.93;;;17.60;99.90;;;;;;5018533;28;20057;-69
2022/04/14 10:56:34;;;;;;;9.98;6.60;;;17.80;99.90;;;;;;5018680;28;20112;-68
2022/04/14 10:59:28;;;;;;;6.70;4.10;;;17.90;99.90;;;;;;5018129;28;20077;-69
2022/04/14 11:01:55;;;;;;;9.90;5.88;;;17.60;99.90;;;;;;5018194;28;20490;-68
2022/04/14 11:04:42;;;;;;;9.82;5.88;;;17.70;99.90;;;;;;5035882;28;20052;-68
2022/04/14 11:07:11;;;;;;;8.13;5.28;;;17.70;99.90;;;;;;5018169;28;20084;-68
2022/04/14 11:12:07;;;;;;;8.27;3.70;;;17.70;99.90;;;;;;5018458;28;20068;-68
2022/04/14 11:14:42;;;;;;;6.95;4.88;;;17.70;99.90;;;;;;5018215;28;20037;-68
2022/04/14 11:20:27;;;;;;;8.63;4.93;;;17.80;99.90;;;;;;5017754;28;20366;-69
2022/04/14 11:23:09;;;;;;;8.30;4.80;;;17.80;99.90;;;;;;5035734;28;20041;-68
2022/04/14 11:25:47;;;;;;;7.75;4.10;;;17.90;99.90;;;;;;4999311;28;20053;-66
2022/04/14 11:28:27;;;;;;;6.70;4.28;;;18.10;99.90;;;;;;5015563;28;20046;-66
2022/04/14 11:31:01;;;;;;;9.02;4.15;;;18.20;99.90;;;;;;4998143;28;20128;-67
2022/04/14 11:33:30;;;;;;;9.82;4.47;;;18.10;99.90;;;;;;5015885;28;20046;-66
2022/04/14 11:36:13;;;;;;;12.35;4.45;;;18.10;99.90;;;;;;5035370;28;20103;-66
2022/04/14 11:38:55;;;;;;;8.02;4.60;;;18.20;99.90;;;;;;5034775;28;20383;-66
2022/04/14 11:41:41;;;;;;;11.88;5.03;;;18.20;99.90;;;;;;5035345;28;20041;-67
2022/04/14 11:44:08;;;;;;;9.75;5.35;;;18.40;99.90;;;;;;5034637;28;20053;-66
2022/04/14 11:46:37;;;;;;;13.20;5.75;;;18.20;99.90;;;;;;5017242;28;20057;-66
2022/04/14 11:49:04;;;;;;;9.38;4.97;;;18.20;99.90;;;;;;5034579;28;20042;-66
2022/04/14 11:51:29;;;;;;;10.52;5.75;;;18.30;99.90;;;;;;5035096;28;20048;-66
2022/04/14 11:53:56;;;;;;;13.57;7.32;;;18.40;99.90;;;;;;5034738;28;20038;-66
2022/04/14 11:56:24;;;;;;;10.50;7.38;;;18.40;99.90;;;;;;5017737;28;20366;-66
2022/04/14 11:58:51;;;;;;;14.70;7.60;;;18.20;99.90;;;;;;5017147;28;20037;-66
2022/04/14 12:01:17;;;;;;;13.32;8.05;;;18.40;99.90;;;;;;5017140;28;20068;-67
2022/04/14 12:03:43;;;;;;;13.32;8.32;;;18.40;99.90;;;;;;5034656;28;20048;-67
2022/04/14 12:06:16;;;;;;;12.13;8.35;;;18.40;99.90;;;;;;5017815;28;20041;-67
2022/04/14 12:09:02;;;;;;;14.20;8.25;;;18.40;99.90;;;;;;5000995;28;20103;-67
2022/04/14 12:11:30;;;;;;;14.20;8.02;;;18.60;99.90;;;;;;5034062;28;20059;-67
2022/04/14 12:13:56;;;;;;;13.85;8.00;;;18.60;99.90;;;;;;5034515;28;20042;-68
2022/04/14 12:16:22;;;;;;;11.48;6.75;;;18.40;99.90;;;;;;5034610;28;20084;-67
2022/04/14 12:18:51;;;;;;;9.50;5.97;;;18.30;99.90;;;;;;5016704;28;20538;-65
2022/04/14 12:21:27;;;;;;;10.65;6.00;;;18.10;99.90;;;;;;5017037;28;20053;-67
2022/04/14 12:23:53;;;;;;;12.88;7.38;;;18.10;99.90;;;;;;5034144;28;20060;-67
2022/04/14 12:26:21;;;;;;;14.45;7.30;;;18.10;99.90;;;;;;5016907;28;20512;-66
2022/04/14 12:28:47;;;;;;;11.27;5.43;;;17.90;99.90;;;;;;5016509;28;20034;-66
2022/04/14 12:31:16;;;;;;;9.52;4.85;;;17.90;99.90;;;;;;5034379;28;20045;-67
2022/04/14 12:33:53;;;;;;;7.53;4.53;;;17.90;99.90;;;;;;5034061;28;20037;-67
2022/04/14 12:36:18;;;;;;;8.30;4.78;;;18.00;99.90;;;;;;5034323;28;20068;-67
2022/04/14 12:38:46;;;;;;;8.02;4.55;;;18.00;99.90;;;;;;5033878;28;20402;-67
2022/04/14 12:41:17;;;;;;;10.88;5.82;;;18.00;99.90;;;;;;5034267;28;20038;-66